Time;durP1;ratioP1;P1;durP2;ratioP2;P2;SDS_P1;SDS_P2;PMS_P1;PMS_P2;Temp;Humidity;BMP_temperature;BMP_pressure;BME280_temperature;BME280_humidity;BME280_pressure;Samples;Min_cycle;Max_cycle;Signal;HPM_P1;HPM_P2
2021/06/24 00:01:06;;;;;;;16.07;4.40;;;;;;;18.65;63.57;100992.04;1722722;81;25778;-67
2021/06/24 00:03:38;;;;;;;10.90;5.08;;;;;;;18.62;63.65;100993.13;1727144;81;27838;-67
2021/06/24 00:06:06;;;;;;;15.05;5.78;;;;;;;18.56;63.75;100987.23;1726385;81;26209;-67
2021/06/24 00:08:34;;;;;;;13.50;5.83;;;;;;;18.54;63.84;100987.83;1732128;80;25852;-67
2021/06/24 00:11:02;;;;;;;11.45;4.80;;;;;;;18.50;63.90;100983.11;1715597;81;25808;-66
2021/06/24 00:13:32;;;;;;;13.03;3.80;;;;;;;18.46;63.91;100991.09;1689110;82;25827;-67
2021/06/24 00:15:58;;;;;;;11.95;4.87;;;;;;;18.44;64.03;100988.48;1685892;82;27408;-67
2021/06/24 00:18:25;;;;;;;13.03;5.03;;;;;;;18.40;64.08;100982.89;1680118;83;26154;-67
2021/06/24 00:20:52;;;;;;;11.38;5.05;;;;;;;18.39;64.26;100982.51;1683230;82;25838;-67
2021/06/24 00:23:19;;;;;;;11.80;5.17;;;;;;;18.36;64.31;100979.14;1683691;83;26443;-67
2021/06/24 00:25:46;;;;;;;9.95;4.87;;;;;;;18.35;64.37;100982.34;1680319;83;25891;-67
2021/06/24 00:28:15;;;;;;;13.68;5.40;;;;;;;18.31;64.42;100967.74;1687359;83;27458;-67
2021/06/24 00:30:40;;;;;;;11.88;5.60;;;;;;;18.28;64.49;100966.11;1689933;82;25727;-67
2021/06/24 00:33:07;;;;;;;13.48;5.47;;;;;;;18.24;64.73;100960.52;1690527;83;26735;-67
2021/06/24 00:35:35;;;;;;;15.13;6.30;;;;;;;18.21;64.89;100964.80;1689095;83;25971;-67
2021/06/24 00:38:04;;;;;;;10.55;5.12;;;;;;;18.19;64.96;100961.36;1687373;83;25769;-67
2021/06/24 00:40:33;;;;;;;15.50;5.10;;;;;;;18.18;65.04;100963.70;1692494;82;28131;-67
2021/06/24 00:43:03;;;;;;;16.12;5.62;;;;;;;18.16;65.64;100957.51;1682422;83;25939;-67
2021/06/24 00:45:30;;;;;;;12.82;5.40;;;;;;;18.10;65.49;100955.22;1690540;83;25757;-67
2021/06/24 00:47:56;;;;;;;15.75;5.17;;;;;;;18.04;65.70;100957.88;1686270;83;25800;-67
2021/06/24 00:50:22;;;;;;;14.95;5.60;;;;;;;18.02;65.92;100954.41;1687794;81;25650;-67
2021/06/24 00:52:50;;;;;;;10.70;5.60;;;;;;;17.99;66.13;100946.97;1687906;83;27466;-68
2021/06/24 00:55:16;;;;;;;16.12;6.00;;;;;;;17.96;66.43;100953.47;1687524;83;26542;-67
2021/06/24 00:57:42;;;;;;;13.03;5.70;;;;;;;17.93;66.52;100958.23;1685477;83;25823;-67
2021/06/24 01:00:13;;;;;;;11.60;6.65;;;;;;;17.91;66.70;100965.61;1685213;83;25793;-67
2021/06/24 01:02:41;;;;;;;10.97;5.87;;;;;;;17.91;66.85;100974.61;1719589;80;25792;-67
2021/06/24 01:05:10;;;;;;;16.20;6.42;;;;;;;17.91;67.00;100981.88;1723033;80;27468;-67
2021/06/24 01:07:36;;;;;;;17.80;6.85;;;;;;;17.87;67.14;100977.64;1717432;81;25839;-67
2021/06/24 01:10:03;;;;;;;16.02;6.05;;;;;;;17.79;67.44;100979.03;1717555;81;26472;-67
2021/06/24 01:12:29;;;;;;;14.85;6.80;;;;;;;17.75;67.59;100986.99;1721841;81;25774;-67
2021/06/24 01:14:59;;;;;;;13.88;5.97;;;;;;;17.73;67.61;100990.30;1718287;81;25861;-67
2021/06/24 01:17:25;;;;;;;16.57;6.30;;;;;;;17.71;67.63;100988.17;1723374;81;27785;-67
2021/06/24 01:19:55;;;;;;;9.88;5.10;;;;;;;17.66;67.82;100986.26;1717038;81;25858;-67
2021/06/24 01:22:21;;;;;;;15.45;6.00;;;;;;;17.62;68.00;101005.02;1717579;81;25861;-67
2021/06/24 01:24:50;;;;;;;12.18;5.40;;;;;;;17.60;68.03;101013.74;1716596;81;25836;-67
2021/06/24 01:27:16;;;;;;;15.43;6.08;;;;;;;17.57;68.05;101004.95;1718254;81;26011;-67
2021/06/24 01:29:42;;;;;;;16.23;5.25;;;;;;;17.54;68.04;101007.38;1719527;81;27406;-67
2021/06/24 01:32:08;;;;;;;12.93;5.53;;;;;;;17.52;68.30;101007.48;1715863;81;27325;-67
2021/06/24 01:34:38;;;;;;;10.68;5.40;;;;;;;17.48;68.27;101015.42;1717094;81;25768;-67
2021/06/24 01:37:07;;;;;;;11.03;4.85;;;;;;;17.46;68.22;101023.27;1716867;81;25826;-67
2021/06/24 01:39:33;;;;;;;12.65;5.00;;;;;;;17.46;68.20;101036.34;1715023;81;25828;-67
2021/06/24 01:42:01;;;;;;;11.30;4.85;;;;;;;17.46;68.21;101045.83;1727599;81;27548;-67
2021/06/24 01:44:35;;;;;;;15.30;5.65;;;;;;;17.47;68.15;101056.18;1733618;80;26490;-67
2021/06/24 01:47:11;;;;;;;10.90;5.45;;;;;;;17.46;68.12;101054.44;1729492;81;26383;-66
2021/06/24 01:49:39;;;;;;;13.78;5.20;;;;;;;17.47;68.14;101060.25;1681199;82;26053;-66
2021/06/24 01:52:06;;;;;;;8.48;5.47;;;;;;;17.49;68.12;101059.17;1678022;83;25841;-66
2021/06/24 01:54:34;;;;;;;11.18;4.80;;;;;;;17.49;68.09;101051.05;1680649;82;27442;-66
2021/06/24 01:57:00;;;;;;;13.68;5.78;;;;;;;17.52;68.08;101035.94;1678193;82;26192;-66
2021/06/24 01:59:31;;;;;;;9.35;4.80;;;;;;;17.50;68.01;101021.61;1679746;82;25802;-66
2021/06/24 02:01:57;;;;;;;14.87;5.28;;;;;;;17.51;68.04;101023.35;1678354;82;25793;-66
2021/06/24 02:04:28;;;;;;;10.72;4.67;;;;;;;17.53;68.08;101026.83;1685299;83;25857;-66
2021/06/24 02:06:56;;;;;;;12.00;4.67;;;;;;;17.58;68.06;101035.14;1688613;82;28263;-66
2021/06/24 02:09:24;;;;;;;11.30;4.60;;;;;;;17.58;68.02;101046.86;1690912;83;25782;-66
2021/06/24 02:11:57;;;;;;;12.23;4.67;;;;;;;17.59;68.03;101051.31;1686064;83;25848;-66
2021/06/24 02:14:25;;;;;;;12.98;5.03;;;;;;;17.59;68.02;101058.08;1692189;83;25780;-66
2021/06/24 02:16:52;;;;;;;9.48;4.60;;;;;;;17.63;68.00;101066.40;1693611;83;25891;-66
2021/06/24 02:19:19;;;;;;;14.75;4.78;;;;;;;17.69;68.03;101074.64;1676110;83;27493;-66
2021/06/24 02:21:48;;;;;;;15.83;4.78;;;;;;;17.72;67.93;101061.76;1680857;83;26044;-66
2021/06/24 02:24:14;;;;;;;11.57;5.53;;;;;;;17.70;67.86;101060.13;1696815;82;25725;-66
2021/06/24 02:26:40;;;;;;;10.68;4.35;;;;;;;17.69;67.90;101055.67;1698150;82;27939;-67
2021/06/24 02:29:06;;;;;;;11.45;5.08;;;;;;;17.71;67.98;101055.95;1694474;82;26666;-67
2021/06/24 02:31:33;;;;;;;12.80;4.72;;;;;;;17.77;67.94;101065.52;1688462;83;27745;-67
2021/06/24 02:34:00;;;;;;;9.95;4.50;;;;;;;17.80;67.94;101064.83;1684937;83;26394;-67
2021/06/24 02:36:28;;;;;;;10.70;4.80;;;;;;;17.83;67.86;101069.18;1689728;83;26522;-67
2021/06/24 02:38:54;;;;;;;9.55;3.87;;;;;;;17.83;67.87;101068.69;1687127;83;26227;-67
2021/06/24 02:41:22;;;;;;;12.63;4.65;;;;;;;17.85;67.82;101068.59;1694237;82;25781;-67
2021/06/24 02:43:48;;;;;;;9.05;4.95;;;;;;;17.86;67.79;101062.68;1698741;82;27531;-67
2021/06/24 02:46:18;;;;;;;13.53;5.17;;;;;;;17.84;67.76;101062.30;1696904;82;25864;-67
2021/06/24 02:48:44;;;;;;;16.65;4.72;;;;;;;17.84;67.81;101063.66;1688814;83;25761;-67
2021/06/24 02:51:10;;;;;;;10.38;5.22;;;;;;;17.90;67.88;101058.79;1689386;83;25886;-67
2021/06/24 02:53:36;;;;;;;10.88;5.12;;;;;;;17.96;67.81;101056.53;1689766;83;25778;-67
2021/06/24 02:56:04;;;;;;;17.17;5.47;;;;;;;17.99;67.82;101055.45;1689334;83;27527;-67
2021/06/24 02:58:30;;;;;;;8.90;5.30;;;;;;;18.04;67.85;101059.59;1689396;83;25726;-67
2021/06/24 03:00:58;;;;;;;10.63;4.72;;;;;;;18.12;67.86;101059.08;1690646;83;26148;-67
2021/06/24 03:03:24;;;;;;;9.63;4.90;;;;;;;18.18;67.84;101051.88;1690006;83;26076;-67
2021/06/24 03:05:51;;;;;;;8.15;4.55;;;;;;;18.22;67.77;101057.44;1689136;83;25811;-67
2021/06/24 03:08:18;;;;;;;12.65;5.87;;;;;;;18.26;67.82;101054.90;1685857;83;27414;-67
2021/06/24 03:10:44;;;;;;;12.07;5.70;;;;;;;18.28;67.77;101035.80;1690135;83;26074;-67
2021/06/24 03:13:10;;;;;;;9.63;5.33;;;;;;;18.27;67.72;101025.43;1683483;83;25851;-67
2021/06/24 03:15:38;;;;;;;13.25;5.92;;;;;;;18.27;67.71;101003.72;1690037;83;25886;-67
2021/06/24 03:18:05;;;;;;;11.25;5.28;;;;;;;18.22;67.70;100979.23;1688329;82;25678;-67
2021/06/24 03:20:32;;;;;;;16.60;6.03;;;;;;;18.18;67.73;100970.48;1690739;83;27449;-67
2021/06/24 03:22:59;;;;;;;17.80;6.78;;;;;;;18.15;67.74;100946.27;1690049;83;25696;-67
2021/06/24 03:25:28;;;;;;;9.80;5.20;;;;;;;18.07;67.72;100926.47;1686811;83;25772;-67
2021/06/24 03:27:54;;;;;;;15.60;5.85;;;;;;;18.00;67.82;100903.95;1690013;83;26488;-67
2021/06/24 03:30:22;;;;;;;12.23;5.60;;;;;;;17.96;67.88;100889.73;1690502;83;26139;-67
2021/06/24 03:32:49;;;;;;;10.90;5.47;;;;;;;17.88;67.88;100878.55;1690521;83;28573;-67
2021/06/24 03:35:19;;;;;;;15.53;5.85;;;;;;;17.86;67.99;100866.08;1688041;83;26700;-67
2021/06/24 03:37:44;;;;;;;12.13;5.40;;;;;;;17.79;68.09;100847.53;1688606;83;25825;-67
2021/06/24 03:40:20;;;;;;;9.90;5.35;;;;;;;17.74;68.17;100837.49;1689715;83;26361;-67
2021/06/24 03:42:44;;;;;;;12.15;5.97;;;;;;;17.72;68.22;100816.40;1687857;83;26352;-67
2021/06/24 03:45:12;;;;;;;19.20;6.12;;;;;;;17.69;68.40;100790.86;1665147;84;27515;-67
2021/06/24 03:47:41;;;;;;;20.37;7.08;;;;;;;17.68;68.43;100762.02;1665818;84;26016;-67
2021/06/24 03:50:10;;;;;;;14.65;5.85;;;;;;;17.59;68.55;100718.39;1663506;83;25920;-67
2021/06/24 03:52:38;;;;;;;9.28;5.67;;;;;;;17.50;68.79;100693.69;1672635;83;25891;-67
2021/06/24 03:55:11;;;;;;;14.65;6.15;;;;;;;17.48;68.98;100669.89;1664291;84;25545;-67
2021/06/24 03:57:38;;;;;;;10.13;5.95;;;;;;;17.43;69.15;100666.64;1666836;84;26871;-67
2021/06/24 04:00:07;;;;;;;8.50;6.17;;;;;;;17.40;69.45;100666.00;1665959;84;25924;-67
2021/06/24 04:02:32;;;;;;;11.73;5.90;;;;;;;17.39;69.68;100696.78;1665683;84;26607;-67
2021/06/24 04:04:58;;;;;;;15.78;7.22;;;;;;;17.39;69.81;100707.13;1665109;84;26490;-67
2021/06/24 04:07:25;;;;;;;14.68;7.83;;;;;;;17.39;69.99;100713.91;1672034;84;26527;-66
2021/06/24 04:09:52;;;;;;;12.78;7.55;;;;;;;17.37;70.23;100703.66;1666362;84;27483;-66
2021/06/24 04:12:18;;;;;;;18.80;6.55;;;;;;;17.31;70.45;100713.58;1665010;84;25781;-66
2021/06/24 04:14:44;;;;;;;16.02;7.47;;;;;;;17.32;70.76;100722.56;1669331;84;25905;-67
2021/06/24 04:17:10;;;;;;;14.35;6.85;;;;;;;17.28;70.83;100738.66;1672565;84;25903;-66
2021/06/24 04:19:36;;;;;;;13.28;7.50;;;;;;;17.23;70.90;100728.14;1664407;84;25800;-67
2021/06/24 04:22:03;;;;;;;15.10;7.72;;;;;;;17.23;71.04;100728.14;1658672;83;28036;-67
2021/06/24 04:24:33;;;;;;;20.80;6.20;;;;;;;17.23;71.13;100730.85;1675750;83;27254;-68
2021/06/24 04:26:59;;;;;;;16.48;6.58;;;;;;;17.25;71.39;100742.94;1674048;84;25885;-67
2021/06/24 04:29:27;;;;;;;17.75;7.15;;;;;;;17.23;71.49;100743.53;1666733;82;26435;-68
2021/06/24 04:31:53;;;;;;;13.70;7.05;;;;;;;17.23;71.60;100747.59;1674480;83;25763;-68
2021/06/24 04:34:20;;;;;;;14.50;6.60;;;;;;;17.22;71.74;100741.80;1675567;84;27555;-68
2021/06/24 04:36:46;;;;;;;22.07;6.87;;;;;;;17.18;71.97;100722.17;1674754;83;25775;-68
2021/06/24 04:39:15;;;;;;;18.57;7.60;;;;;;;17.23;72.29;100700.19;1664159;84;25702;-69
2021/06/24 04:41:43;;;;;;;23.42;9.03;;;;;;;17.28;72.27;100688.54;1655920;84;25778;-68
2021/06/24 04:44:09;;;;;;;16.35;8.80;;;;;;;17.34;72.36;100703.01;1677417;83;25726;-68
2021/06/24 04:46:34;;;;;;;20.32;9.18;;;;;;;17.40;72.54;100729.67;1681156;84;27551;-68
2021/06/24 04:49:02;;;;;;;17.67;8.08;;;;;;;17.46;72.55;100726.05;1664316;84;26337;-68
2021/06/24 04:51:31;;;;;;;20.50;9.03;;;;;;;17.52;72.55;100718.83;1674665;83;25840;-68
2021/06/24 04:53:57;;;;;;;19.98;10.05;;;;;;;17.55;72.56;100723.66;1672419;84;25737;-68
2021/06/24 04:56:25;;;;;;;19.10;9.08;;;;;;;17.58;72.77;100710.75;1674522;83;25816;-68
2021/06/24 04:58:52;;;;;;;21.07;8.25;;;;;;;17.65;73.15;100707.12;1666484;84;27779;-67
2021/06/24 05:01:18;;;;;;;22.90;8.18;;;;;;;17.70;73.09;100708.55;1681359;83;25752;-66
2021/06/24 05:03:44;;;;;;;18.02;9.00;;;;;;;17.77;73.16;100713.91;1676082;83;25812;-65
2021/06/24 05:06:11;;;;;;;18.75;9.05;;;;;;;17.84;73.08;100736.03;1664072;83;26354;-65
2021/06/24 05:08:41;;;;;;;20.32;7.85;;;;;;;17.91;73.08;100744.59;1651704;84;25853;-65
2021/06/24 05:11:07;;;;;;;21.65;9.50;;;;;;;17.98;72.96;100744.03;1664570;84;29537;-65
2021/06/24 05:13:34;;;;;;;29.23;10.53;;;;;;;18.05;72.99;100758.88;1663082;84;25821;-65
2021/06/24 05:16:06;;;;;;;17.62;9.40;;;;;;;18.13;72.96;100768.69;1662340;84;25391;-66
2021/06/24 05:18:37;;;;;;;18.30;8.95;;;;;;;18.22;72.89;100775.26;1682077;83;25812;-65
2021/06/24 05:21:06;;;;;;;16.82;8.15;;;;;;;18.30;72.86;100776.92;1650255;84;26279;-65
2021/06/24 05:23:32;;;;;;;17.20;8.10;;;;;;;18.39;72.78;100785.74;1677827;82;27023;-65
2021/06/24 05:26:00;;;;;;;16.55;8.15;;;;;;;18.44;72.74;100778.12;1666557;83;25829;-65
2021/06/24 05:28:25;;;;;;;25.17;10.15;;;;;;;18.50;72.60;100776.80;1674047;83;25800;-65
2021/06/24 05:30:53;;;;;;;14.68;8.20;;;;;;;18.48;72.61;100780.98;1714404;81;26276;-65
2021/06/24 05:33:20;;;;;;;15.78;8.80;;;;;;;18.46;72.55;100791.59;1706301;82;25756;-65
2021/06/24 05:35:49;;;;;;;17.92;8.58;;;;;;;18.49;72.68;100794.94;1705736;82;27430;-67
2021/06/24 05:38:21;;;;;;;16.85;7.83;;;;;;;18.55;72.60;100804.48;1706595;81;27264;-66
2021/06/24 05:40:50;;;;;;;20.55;8.40;;;;;;;18.61;72.70;100812.20;1706105;82;26405;-67
2021/06/24 05:43:17;;;;;;;19.35;9.80;;;;;;;18.74;72.60;100821.66;1720871;81;25842;-67
2021/06/24 05:45:44;;;;;;;16.40;9.33;;;;;;;18.80;72.57;100827.50;1724457;81;25831;-65
2021/06/24 05:48:10;;;;;;;18.57;9.55;;;;;;;18.89;72.57;100825.95;1723027;81;27457;-67
2021/06/24 05:50:36;;;;;;;11.93;8.28;;;;;;;18.98;72.52;100825.25;1716088;81;25807;-66
2021/06/24 05:53:07;;;;;;;15.85;7.55;;;;;;;19.05;72.53;100834.67;1713934;81;37217;-67
2021/06/24 05:55:49;;;;;;;17.85;8.05;;;;;;;19.18;72.47;100848.69;1715943;81;25769;-66
2021/06/24 05:58:25;;;;;;;23.70;7.65;;;;;;;19.27;72.40;100857.01;1714328;81;25738;-66
2021/06/24 06:00:55;;;;;;;16.60;8.08;;;;;;;19.35;72.33;100862.73;1713683;81;27470;-67
2021/06/24 06:03:25;;;;;;;18.12;8.08;;;;;;;19.43;72.28;100841.26;1710878;81;26002;-66
2021/06/24 06:05:56;;;;;;;14.53;7.37;;;;;;;19.51;72.12;100844.74;1718381;81;25609;-68
2021/06/24 06:08:27;;;;;;;17.95;8.03;;;;;;;19.51;72.13;100838.44;1719050;81;26396;-68
2021/06/24 06:10:55;;;;;;;24.92;8.65;;;;;;;19.65;72.07;100850.02;1718772;80;26268;-67
2021/06/24 06:13:22;;;;;;;16.42;6.95;;;;;;;19.74;72.02;100854.73;1717557;81;27471;-68
2021/06/24 06:15:50;;;;;;;19.48;8.43;;;;;;;19.80;71.92;100851.16;1729262;81;25967;-69
2021/06/24 06:18:23;;;;;;;19.95;8.30;;;;;;;19.91;71.87;100853.41;1722899;80;25716;-68
2021/06/24 06:20:52;;;;;;;15.90;8.73;;;;;;;19.92;71.70;100861.94;1716036;80;26845;-66
2021/06/24 06:23:20;;;;;;;21.17;9.05;;;;;;;19.91;71.59;100857.48;1718584;81;25950;-70
2021/06/24 06:25:48;;;;;;;17.77;8.58;;;;;;;19.88;71.43;100865.02;1718275;81;27462;-72
2021/06/24 06:28:18;;;;;;;25.40;9.08;;;;;;;19.82;71.45;100858.22;1718773;81;25787;-74
2021/06/24 06:30:48;;;;;;;20.92;8.38;;;;;;;19.83;71.47;100853.64;1717650;81;25999;-72
2021/06/24 06:33:16;;;;;;;19.62;9.30;;;;;;;19.81;71.38;100863.77;1721369;80;26410;-70
2021/06/24 06:35:45;;;;;;;22.32;8.88;;;;;;;19.78;71.30;100872.55;1725822;80;26626;-75
2021/06/24 06:38:13;;;;;;;26.37;8.70;;;;;;;19.77;71.29;100865.86;1722476;81;27423;-72
2021/06/24 06:40:41;;;;;;;23.85;9.58;;;;;;;19.72;71.19;100866.72;1716538;81;25749;-77
2021/06/24 06:43:08;;;;;;;15.55;8.40;;;;;;;19.68;71.26;100858.42;1716686;80;25871;-73
2021/06/24 06:45:35;;;;;;;20.57;8.93;;;;;;;19.69;71.24;100865.59;1712583;81;25898;-69
2021/06/24 06:48:04;;;;;;;17.67;8.13;;;;;;;19.69;71.17;100863.75;1701588;80;26279;-68
2021/06/24 06:50:35;;;;;;;18.70;8.65;;;;;;;19.66;71.18;100866.70;1720736;80;27566;-70
2021/06/24 06:53:02;;;;;;;23.57;10.88;;;;;;;19.71;71.23;100860.91;1713847;81;26354;-71
2021/06/24 06:55:28;;;;;;;17.57;9.25;;;;;;;19.76;71.24;100858.20;1715678;81;25763;-72
2021/06/24 06:57:56;;;;;;;27.15;10.98;;;;;;;19.81;71.18;100855.61;1707490;82;25763;-72
2021/06/24 07:00:24;;;;;;;34.75;10.65;;;;;;;19.90;71.17;100850.81;1707305;82;25749;-72
2021/06/24 07:02:54;;;;;;;16.42;9.65;;;;;;;19.90;71.06;100844.88;1706187;81;27579;-72
2021/06/24 07:05:24;;;;;;;22.27;11.00;;;;;;;19.91;71.03;100844.38;1707060;82;25830;-70
2021/06/24 07:07:51;;;;;;;20.48;10.00;;;;;;;19.92;71.04;100843.39;1703197;82;25701;-71
2021/06/24 07:10:18;;;;;;;22.45;9.98;;;;;;;19.91;71.06;100852.54;1703556;80;25844;-71
2021/06/24 07:12:46;;;;;;;20.05;9.80;;;;;;;19.94;71.07;100853.16;1738638;80;25702;-71
2021/06/24 07:15:13;;;;;;;23.83;11.63;;;;;;;19.95;70.96;100858.98;1726093;80;27455;-71
2021/06/24 07:17:41;;;;;;;29.02;9.98;;;;;;;19.92;70.96;100866.02;1726849;80;25628;-73
2021/06/24 07:20:11;;;;;;;21.50;9.93;;;;;;;19.98;71.06;100860.59;1709823;80;26435;-75
2021/06/24 07:22:39;;;;;;;28.57;9.83;;;;;;;20.04;71.00;100866.41;1712583;81;26374;-76
2021/06/24 07:25:13;;;;;;;23.35;9.15;;;;;;;20.14;70.95;100867.05;1703243;82;25875;-76
2021/06/24 07:27:44;;;;;;;29.70;10.15;;;;;;;20.20;70.86;100866.06;1712219;80;27436;-76
2021/06/24 07:30:15;;;;;;;15.10;8.95;;;;;;;20.25;70.75;100857.03;1708874;80;25823;-73
2021/06/24 07:32:42;;;;;;;25.90;13.65;;;;;;;20.29;70.75;100853.08;1706938;82;26307;-71
2021/06/24 07:35:10;;;;;;;25.55;12.03;;;;;;;20.45;70.68;100850.50;1719456;82;26404;-73
2021/06/24 07:37:38;;;;;;;19.77;9.78;;;;;;;20.59;70.62;100850.24;1705895;82;25873;-70
2021/06/24 07:40:09;;;;;;;17.35;8.10;;;;;;;20.70;70.48;100842.92;1718268;82;27480;-70
2021/06/24 07:42:35;;;;;;;;;;;;;;;20.80;70.31;100843.03;1717997;82;25761;-72
2021/06/24 07:45:06;;;;;;;21.52;9.55;;;;;;;20.94;70.20;100841.34;1707835;82;26069;-71
2021/06/24 07:47:35;;;;;;;15.68;8.95;;;;;;;21.02;70.31;100840.70;1698063;82;25894;-70
2021/06/24 07:50:01;;;;;;;16.23;7.90;;;;;;;21.13;69.96;100835.72;1716147;82;25742;-70
2021/06/24 07:52:27;;;;;;;20.23;9.15;;;;;;;21.23;69.85;100835.34;1706550;82;27500;-71
2021/06/24 07:54:52;;;;;;;19.23;9.18;;;;;;;21.31;69.75;100841.88;1709254;81;25840;-72
2021/06/24 07:57:19;;;;;;;22.17;8.75;;;;;;;21.35;69.55;100846.56;1717318;82;25777;-71
2021/06/24 07:59:47;;;;;;;23.38;8.45;;;;;;;21.38;69.40;100843.58;1705173;82;26125;-70
2021/06/24 08:02:15;;;;;;;21.48;8.53;;;;;;;21.39;69.31;100838.00;1706431;82;25787;-70
2021/06/24 08:04:41;;;;;;;18.50;9.58;;;;;;;21.52;69.27;100843.27;1705891;82;27376;-70
2021/06/24 08:07:07;;;;;;;22.07;9.55;;;;;;;21.58;68.97;100837.28;1674636;83;25860;-72
2021/06/24 08:09:33;;;;;;;20.55;9.30;;;;;;;21.55;68.77;100832.59;1673587;83;25858;-72
2021/06/24 08:12:00;;;;;;;24.52;9.88;;;;;;;21.55;68.73;100828.50;1668976;83;25956;-71
2021/06/24 08:14:27;;;;;;;23.70;10.05;;;;;;;21.56;68.55;100833.81;1675088;83;25813;-72
2021/06/24 08:16:55;;;;;;;23.05;9.43;;;;;;;21.65;68.48;100837.12;1674061;83;27399;-73
2021/06/24 08:19:21;;;;;;;16.93;8.83;;;;;;;21.74;68.34;100833.22;1673071;83;25826;-71
2021/06/24 08:21:50;;;;;;;16.15;8.03;;;;;;;21.87;68.17;100836.11;1666883;84;25891;-70
2021/06/24 08:24:17;;;;;;;18.17;7.83;;;;;;;22.01;68.07;100827.58;1665220;84;26443;-73
2021/06/24 08:26:43;;;;;;;17.35;8.58;;;;;;;22.22;67.97;100828.94;1667563;84;25769;-73
2021/06/24 08:29:11;;;;;;;18.35;9.05;;;;;;;22.32;67.67;100824.38;1668374;83;27562;-73
2021/06/24 08:31:38;;;;;;;17.00;8.35;;;;;;;22.41;67.58;100828.65;1660036;84;25841;-72
2021/06/24 08:34:08;;;;;;;18.40;8.50;;;;;;;22.53;67.44;100824.81;1667333;84;25792;-73
2021/06/24 08:36:35;;;;;;;24.10;7.70;;;;;;;22.62;67.21;100818.52;1667090;84;25829;-74
2021/06/24 08:39:02;;;;;;;15.08;9.48;;;;;;;22.74;67.08;100825.59;1663228;84;25367;-74
2021/06/24 08:41:28;;;;;;;19.98;8.90;;;;;;;22.83;66.89;100823.92;1680417;82;28265;-72
2021/06/24 08:43:56;;;;;;;16.48;9.18;;;;;;;22.89;66.69;100822.85;1679689;83;25800;-70
2021/06/24 08:46:22;;;;;;;12.33;7.55;;;;;;;22.91;66.39;100823.58;1686403;83;25684;-71
2021/06/24 08:48:51;;;;;;;15.80;8.70;;;;;;;22.91;66.28;100821.34;1685153;82;26288;-69
2021/06/24 08:51:19;;;;;;;16.10;8.13;;;;;;;22.96;66.24;100821.78;1718795;81;25696;-70
2021/06/24 08:53:49;;;;;;;22.75;9.78;;;;;;;23.02;65.92;100818.48;1738378;81;27448;-75
2021/06/24 08:56:17;;;;;;;13.27;8.30;;;;;;;23.03;65.72;100819.34;1717978;81;25834;-76
2021/06/24 08:58:45;;;;;;;22.50;9.45;;;;;;;23.00;65.20;100821.86;1730587;81;25706;-70
2021/06/24 09:01:12;;;;;;;20.30;10.18;;;;;;;22.95;65.12;100826.89;1718865;81;25911;-70
2021/06/24 09:03:39;;;;;;;21.10;11.25;;;;;;;22.77;65.09;100825.81;1731151;80;25697;-68
2021/06/24 09:06:08;;;;;;;19.15;8.70;;;;;;;22.75;65.29;100816.89;1714706;81;27558;-68
2021/06/24 09:08:40;;;;;;;18.67;9.50;;;;;;;22.90;65.30;100812.28;1717945;81;26111;-73
2021/06/24 09:11:15;;;;;;;18.25;9.70;;;;;;;23.09;65.19;100814.67;1716042;81;25692;-69
2021/06/24 09:13:46;;;;;;;23.38;8.85;;;;;;;23.17;64.98;100814.32;1684138;82;26558;-73
2021/06/24 09:16:36;;;;;;;21.48;11.53;;;;;;;23.21;64.84;100811.66;1716352;81;25811;-69
2021/06/24 09:19:23;;;;;;;17.95;9.90;;;;;;;23.33;64.76;100810.14;1709386;81;27432;-69
2021/06/24 09:22:08;;;;;;;15.03;8.33;;;;;;;23.40;64.57;100813.53;1716924;81;25903;-72
2021/06/24 09:24:47;;;;;;;23.20;9.73;;;;;;;23.44;64.43;100810.83;1716482;81;25759;-74
2021/06/24 09:27:24;;;;;;;22.42;11.53;;;;;;;23.62;64.48;100810.98;1718269;81;26499;-72
2021/06/24 09:30:09;;;;;;;14.90;9.20;;;;;;;23.85;64.20;100808.78;1716242;81;25995;-71
2021/06/24 09:32:46;;;;;;;22.67;9.95;;;;;;;23.91;63.83;100804.08;1718332;81;27380;-73
2021/06/24 09:35:29;;;;;;;17.65;9.03;;;;;;;23.81;63.13;100803.24;1715602;81;25764;-74
2021/06/24 09:38:14;;;;;;;21.73;9.33;;;;;;;23.68;63.18;100804.92;1722936;80;27713;-72
2021/06/24 09:40:48;;;;;;;19.80;8.23;;;;;;;23.50;62.47;100808.88;1723068;81;25961;-71
2021/06/24 09:43:26;;;;;;;19.67;9.38;;;;;;;23.25;62.86;100811.73;1722708;81;25770;-71
2021/06/24 09:46:20;;;;;;;22.62;8.60;;;;;;;23.12;62.83;100808.41;1719252;81;27426;-69
2021/06/24 09:48:56;;;;;;;20.17;8.80;;;;;;;23.02;62.89;100806.69;1725891;81;25800;-73
2021/06/24 09:51:32;;;;;;;28.38;9.80;;;;;;;22.85;62.90;100809.11;1725966;81;26360;-72
2021/06/24 09:54:10;;;;;;;25.60;9.75;;;;;;;22.83;63.09;100811.62;1725334;81;25836;-74
2021/06/24 09:56:44;;;;;;;41.02;9.58;;;;;;;22.81;63.20;100811.77;1732293;80;27948;-74
2021/06/24 09:59:13;;;;;;;30.52;10.00;;;;;;;22.80;63.21;100808.66;1717952;81;27605;-74
2021/06/24 10:01:47;;;;;;;22.98;10.30;;;;;;;22.76;63.22;100810.42;1692171;82;25786;-74
2021/06/24 10:04:29;;;;;;;27.48;9.95;;;;;;;22.73;63.26;100818.40;1683400;82;26233;-74
2021/06/24 10:06:59;;;;;;;19.00;10.35;;;;;;;22.63;63.09;100817.52;1744989;80;25760;-74
2021/06/24 10:09:28;;;;;;;23.30;10.90;;;;;;;22.43;63.24;100827.52;1747235;80;26064;-74
2021/06/24 10:11:58;;;;;;;18.40;9.23;;;;;;;22.28;63.32;100821.56;1733593;80;28170;-74
2021/06/24 10:14:25;;;;;;;30.10;10.63;;;;;;;22.24;63.64;100823.34;1732087;80;25673;-74
2021/06/24 10:16:55;;;;;;;19.02;9.73;;;;;;;22.30;63.78;100829.61;1736679;81;26345;-74
2021/06/24 10:19:34;;;;;;;20.35;8.88;;;;;;;22.25;63.75;100834.63;1732012;81;25863;-74
2021/06/24 10:22:17;;;;;;;22.85;11.73;;;;;;;22.22;63.88;100820.74;1736791;79;25796;-74
2021/06/24 10:24:54;;;;;;;19.82;11.85;;;;;;;22.16;63.93;100823.16;1732914;80;27489;-74
2021/06/24 10:27:25;;;;;;;32.98;12.18;;;;;;;22.20;64.07;100832.30;1729384;81;26561;-74
2021/06/24 10:29:53;;;;;;;24.65;13.75;;;;;;;22.17;64.11;100823.02;1730830;81;25799;-74
2021/06/24 10:32:31;;;;;;;27.42;13.90;;;;;;;22.21;64.24;100831.80;1728513;80;25845;-74
2021/06/24 10:35:02;;;;;;;28.73;13.05;;;;;;;22.18;64.17;100827.48;1740838;80;26015;-74
2021/06/24 10:37:33;;;;;;;24.75;12.13;;;;;;;22.18;64.28;100823.37;1738906;80;27558;-73
2021/06/24 10:40:34;;;;;;;24.90;12.70;;;;;;;22.26;64.45;100820.83;1742283;80;25715;-74
2021/06/24 10:43:06;;;;;;;24.82;14.70;;;;;;;22.37;64.31;100823.10;1746368;80;25828;-74
2021/06/24 10:45:35;;;;;;;25.90;12.30;;;;;;;22.47;64.53;100817.17;1714238;81;26729;-73
2021/06/24 10:48:29;;;;;;;25.23;13.18;;;;;;;22.66;64.47;100814.50;1721339;81;26895;-73
2021/06/24 10:51:08;;;;;;;21.15;12.60;;;;;;;22.90;64.48;100810.91;1716809;81;28269;-73
2021/06/24 10:53:40;;;;;;;22.42;13.78;;;;;;;23.20;64.25;100814.53;1706681;82;25690;-73
2021/06/24 10:56:33;;;;;;;33.28;13.80;;;;;;;23.28;63.99;100803.23;1707153;82;25805;-73
2021/06/24 10:59:22;;;;;;;21.25;12.25;;;;;;;23.38;63.86;100805.97;1707027;82;25758;-74
2021/06/24 11:01:49;;;;;;;31.07;13.10;;;;;;;23.33;63.54;100804.67;1704469;82;25704;-74
2021/06/24 11:04:32;;;;;;;28.47;13.58;;;;;;;23.25;63.20;100806.77;1706431;82;27550;-74
2021/06/24 11:07:03;;;;;;;20.95;11.63;;;;;;;23.01;63.17;100814.52;1704796;82;25758;-74
2021/06/24 11:09:29;;;;;;;27.70;12.95;;;;;;;22.76;63.06;100807.19;1706143;82;25777;-74
2021/06/24 11:11:57;;;;;;;27.82;15.28;;;;;;;22.68;63.44;100809.25;1706585;82;26543;-74
2021/06/24 11:15:02;;;;;;;22.55;14.43;;;;;;;22.66;63.51;100804.94;1703829;82;26121;-74
2021/06/24 11:17:46;;;;;;;27.42;14.05;;;;;;;22.61;63.49;100812.69;1698684;82;27401;-75
2021/06/24 11:20:19;;;;;;;26.07;15.88;;;;;;;22.49;63.64;100806.97;1704665;82;25902;-74
2021/06/24 11:22:52;;;;;;;30.00;15.60;;;;;;;22.42;63.62;100811.27;1707529;82;25995;-74
2021/06/24 11:25:19;;;;;;;36.20;16.87;;;;;;;22.26;63.75;100812.64;1713487;81;25726;-75
2021/06/24 11:27:46;;;;;;;31.00;14.60;;;;;;;22.25;63.87;100812.28;1705283;82;25728;-75